Time;durP1;ratioP1;P1;durP2;ratioP2;P2;SDS_P1;SDS_P2;PMS_P1;PMS_P2;Temp;Humidity;BMP_temperature;BMP_pressure;BME280_temperature;BME280_humidity;BME280_pressure;Samples;Min_cycle;Max_cycle;Signal;HPM_P1;HPM_P2
2021/12/14 00:01:21;;;;;;;9.97;8.07;;;2.20;99.90;;;;;;5008063;28;20447;-49
2021/12/14 00:03:54;;;;;;;7.93;5.97;;;2.20;99.90;;;;;;5008967;28;20510;-51
2021/12/14 00:06:23;;;;;;;12.10;6.87;;;2.30;99.90;;;;;;5008138;28;20896;-50
2021/12/14 00:08:55;;;;;;;5.43;4.80;;;2.30;99.90;;;;;;5008122;28;20553;-52
2021/12/14 00:11:50;;;;;;;7.03;6.30;;;2.30;99.90;;;;;;5008139;28;20451;-51
2021/12/14 00:17:12;;;;;;;12.07;6.67;;;2.30;99.90;;;;;;5008065;28;20427;-53
2021/12/14 00:19:39;;;;;;;33.83;6.70;;;2.30;99.90;;;;;;5018159;28;20858;-49
2021/12/14 00:22:19;;;;;;;22.37;7.07;;;2.30;99.90;;;;;;5008844;28;20482;-49
2021/12/14 00:24:47;;;;;;;26.10;7.17;;;2.30;99.90;;;;;;5007930;28;20439;-50
2021/12/14 00:27:18;;;;;;;8.03;4.87;;;2.30;99.90;;;;;;5007739;28;21029;-50
2021/12/14 00:29:49;;;;;;;4.87;4.47;;;2.30;99.90;;;;;;5010265;28;20488;-51
2021/12/14 00:32:24;;;;;;;6.20;5.40;;;2.30;99.90;;;;;;5008388;28;20481;-50
2021/12/14 00:34:54;;;;;;;10.47;6.87;;;2.30;99.90;;;;;;5009263;28;20451;-51
2021/12/14 00:37:24;;;;;;;10.67;7.43;;;2.30;99.90;;;;;;5008536;28;21002;-53
2021/12/14 00:39:53;;;;;;;20.67;7.80;;;2.40;99.90;;;;;;5006388;28;20509;-48
2021/12/14 00:42:22;;;;;;;25.03;8.37;;;2.40;99.90;;;;;;5007167;28;21075;-50
2021/12/14 00:44:50;;;;;;;11.67;8.07;;;2.40;99.90;;;;;;5009267;28;20475;-50
2021/12/14 00:47:17;;;;;;;11.40;8.30;;;2.40;99.90;;;;;;5008200;28;20534;-51
2021/12/14 00:49:45;;;;;;;15.20;11.17;;;2.40;99.90;;;;;;5007729;28;20883;-50
2021/12/14 00:52:12;;;;;;;12.17;9.87;;;2.40;99.90;;;;;;5009620;28;20481;-49
2021/12/14 00:54:40;;;;;;;14.40;9.33;;;2.40;99.90;;;;;;5008178;28;20541;-51
2021/12/14 00:57:08;;;;;;;22.07;10.97;;;2.40;99.90;;;;;;5007620;28;20529;-51
2021/12/14 00:59:37;;;;;;;14.53;9.43;;;2.40;99.90;;;;;;5004460;28;20559;-51
2021/12/14 01:02:08;;;;;;;11.70;9.43;;;2.40;99.90;;;;;;5008278;28;20487;-50
2021/12/14 01:04:38;;;;;;;15.93;9.13;;;2.40;99.90;;;;;;5008537;28;20856;-49
2021/12/14 01:07:09;;;;;;;13.00;8.80;;;2.40;99.90;;;;;;5007152;28;20470;-51
2021/12/14 01:09:39;;;;;;;9.33;8.03;;;2.40;99.90;;;;;;5007862;28;21145;-51
2021/12/14 01:12:13;;;;;;;16.90;7.70;;;2.40;99.90;;;;;;5003945;28;20447;-52
2021/12/14 01:14:47;;;;;;;14.03;7.60;;;2.40;99.90;;;;;;5008632;28;20451;-51
2021/12/14 01:17:27;;;;;;;17.27;7.40;;;2.40;99.90;;;;;;5010784;28;20438;-50
2021/12/14 01:19:59;;;;;;;20.23;8.00;;;2.40;99.90;;;;;;5008229;28;20470;-51
2021/12/14 01:22:41;;;;;;;18.87;10.30;;;2.40;99.90;;;;;;5007823;28;20530;-50
2021/12/14 01:25:16;;;;;;;22.07;8.60;;;2.40;99.90;;;;;;5014288;28;20439;-52
2021/12/14 01:27:49;;;;;;;16.23;7.87;;;2.40;99.90;;;;;;5006347;28;20520;-51
2021/12/14 01:30:23;;;;;;;22.13;8.63;;;2.40;99.90;;;;;;5007363;28;20507;-51
2021/12/14 01:32:51;;;;;;;22.33;8.60;;;2.40;99.90;;;;;;5011248;28;20964;-47
2021/12/14 01:35:24;;;;;;;15.73;8.20;;;2.40;99.90;;;;;;5003860;28;20551;-49
2021/12/14 01:38:02;;;;;;;18.17;6.13;;;2.40;99.90;;;;;;5008409;28;20765;-51
2021/12/14 01:43:39;;;;;;;14.97;3.70;;;2.00;99.90;;;;;;5147250;27;20670;-52
2021/12/14 01:46:21;;;;;;;28.53;3.53;;;1.60;99.90;;;;;;5125871;27;20480;-50
2021/12/14 01:48:49;;;;;;;8.63;2.07;;;1.50;99.90;;;;;;5132751;27;20847;-52
2021/12/14 01:51:18;;;;;;;17.23;2.93;;;1.60;99.90;;;;;;5126626;27;20503;-51
2021/12/14 01:53:47;;;;;;;8.83;2.43;;;1.70;99.90;;;;;;5127098;27;21022;-50
2021/12/14 01:56:20;;;;;;;12.20;3.80;;;1.70;99.90;;;;;;5126262;27;20532;-48
2021/12/14 01:58:51;;;;;;;41.93;4.63;;;1.80;99.90;;;;;;5124781;27;20533;-49
2021/12/14 02:01:23;;;;;;;9.93;3.20;;;1.80;99.90;;;;;;5126723;27;20432;-50
2021/12/14 02:03:54;;;;;;;22.50;6.50;;;1.80;99.90;;;;;;5126355;27;20512;-50
2021/12/14 02:06:26;;;;;;;15.03;5.73;;;1.80;99.90;;;;;;5127392;27;20546;-52
2021/12/14 02:09:00;;;;;;;7.50;4.17;;;1.60;99.90;;;;;;5125723;27;20968;-50
2021/12/14 02:11:31;;;;;;;8.83;5.53;;;1.40;99.90;;;;;;5124418;27;21001;-51
2021/12/14 02:14:00;;;;;;;10.67;5.03;;;1.50;99.90;;;;;;5126396;27;20442;-50
2021/12/14 02:16:27;;;;;;;10.83;5.07;;;1.60;99.90;;;;;;5127687;27;20480;-52
2021/12/14 02:18:59;;;;;;;8.80;4.63;;;1.70;99.90;;;;;;5124511;27;21005;-52
2021/12/14 02:21:28;;;;;;;27.67;7.67;;;1.80;99.90;;;;;;5125398;27;20511;-53
2021/12/14 02:23:57;;;;;;;69.13;11.03;;;1.80;99.90;;;;;;5129068;27;20517;-50
2021/12/14 02:26:29;;;;;;;68.07;10.30;;;1.40;99.90;;;;;;5125895;27;20529;-50
2021/12/14 02:28:58;;;;;;;13.60;5.70;;;1.20;99.90;;;;;;5120829;27;20817;-50
2021/12/14 02:31:26;;;;;;;8.87;5.37;;;1.30;99.90;;;;;;5126206;27;20531;-51
2021/12/14 02:33:57;;;;;;;18.80;7.70;;;1.50;99.90;;;;;;5119798;27;20564;-52
2021/12/14 02:36:28;;;;;;;7.27;4.90;;;1.60;99.90;;;;;;5122470;27;20462;-51
2021/12/14 02:39:06;;;;;;;50.30;9.57;;;1.70;99.90;;;;;;5126184;27;20469;-52
2021/12/14 02:41:42;;;;;;;12.83;6.00;;;1.60;99.90;;;;;;5125723;27;20453;-51
2021/12/14 02:44:10;;;;;;;30.50;8.07;;;1.70;99.90;;;;;;5125806;27;20531;-50
2021/12/14 02:46:42;;;;;;;14.27;6.00;;;1.70;99.90;;;;;;5126333;27;20488;-52
2021/12/14 02:49:12;;;;;;;14.50;6.83;;;1.80;99.90;;;;;;5125949;27;20600;-49
2021/12/14 02:51:44;;;;;;;38.23;6.73;;;1.80;99.90;;;;;;5124267;27;20469;-51
2021/12/14 02:54:24;;;;;;;13.43;5.10;;;1.90;99.90;;;;;;5115870;27;20517;-50
2021/12/14 02:56:54;;;;;;;17.73;5.10;;;1.90;99.90;;;;;;5111712;27;20718;-50
2021/12/14 02:59:23;;;;;;;87.43;9.67;;;1.90;99.90;;;;;;5112253;27;21336;-51
2021/12/14 03:01:53;;;;;;;42.00;6.20;;;1.70;99.90;;;;;;5116873;27;20557;-50
2021/12/14 03:04:20;;;;;;;53.37;9.13;;;1.10;99.90;;;;;;5110457;28;20530;-52
2021/12/14 03:06:53;;;;;;;34.50;5.83;;;1.00;99.90;;;;;;5110892;27;20532;-50
2021/12/14 03:09:36;;;;;;;5.17;4.47;;;1.20;99.90;;;;;;5109956;28;20501;-51
2021/12/14 03:12:07;;;;;;;5.20;3.73;;;1.30;99.90;;;;;;5105271;28;20452;-49
2021/12/14 03:14:34;;;;;;;16.53;4.20;;;1.50;99.90;;;;;;5111714;27;20477;-50
2021/12/14 03:17:01;;;;;;;26.03;4.73;;;1.50;99.90;;;;;;5109385;27;20442;-49
2021/12/14 03:19:29;;;;;;;24.73;7.30;;;1.60;99.90;;;;;;5108605;27;20497;-49
2021/12/14 03:21:57;;;;;;;32.20;7.40;;;1.40;99.90;;;;;;5110527;28;20566;-49
2021/12/14 03:24:25;;;;;;;9.57;3.90;;;1.10;99.90;;;;;;5110208;27;20819;-50
2021/12/14 03:26:55;;;;;;;11.17;4.30;;;1.20;99.90;;;;;;5109868;28;20526;-51
2021/12/14 03:29:25;;;;;;;14.50;4.43;;;1.30;99.90;;;;;;5119060;27;21228;-50
2021/12/14 03:31:56;;;;;;;27.40;5.20;;;1.40;99.90;;;;;;5109187;27;20881;-50
2021/12/14 03:34:26;;;;;;;21.43;5.23;;;1.40;99.90;;;;;;5112257;27;20523;-50
2021/12/14 03:36:56;;;;;;;16.20;5.40;;;1.20;99.90;;;;;;5111980;27;20477;-49
2021/12/14 03:39:29;;;;;;;29.73;5.63;;;0.70;99.90;;;;;;5110478;27;21052;-49
2021/12/14 03:41:59;;;;;;;20.87;5.13;;;0.60;99.90;;;;;;5109452;28;20547;-49
2021/12/14 03:44:30;;;;;;;26.60;5.73;;;0.80;99.90;;;;;;5109960;27;20486;-50
2021/12/14 03:47:00;;;;;;;21.30;4.87;;;0.90;99.90;;;;;;5112999;27;20477;-50
2021/12/14 03:49:35;;;;;;;20.10;4.67;;;0.80;99.90;;;;;;5109533;27;21060;-51
2021/12/14 03:52:06;;;;;;;8.73;3.43;;;0.90;99.90;;;;;;5109761;27;20523;-49
2021/12/14 03:54:35;;;;;;;7.00;3.93;;;1.00;99.90;;;;;;5109684;27;20485;-49
2021/12/14 03:57:02;;;;;;;11.47;4.10;;;1.10;99.90;;;;;;5108475;27;20534;-51
2021/12/14 03:59:31;;;;;;;7.53;3.60;;;1.20;99.90;;;;;;5108758;28;20542;-50
2021/12/14 04:02:01;;;;;;;3.40;3.10;;;1.20;99.90;;;;;;5108163;27;20533;-49
2021/12/14 04:04:33;;;;;;;4.40;3.07;;;1.30;99.90;;;;;;5101998;27;20824;-49
2021/12/14 04:07:02;;;;;;;10.10;3.17;;;1.30;99.90;;;;;;5110171;27;20441;-47
2021/12/14 04:09:31;;;;;;;16.93;4.17;;;1.40;99.90;;;;;;5106086;27;20545;-50
2021/12/14 04:12:00;;;;;;;19.90;4.73;;;1.40;99.90;;;;;;5103277;28;20470;-53
2021/12/14 04:14:30;;;;;;;19.30;5.43;;;1.00;99.90;;;;;;5109261;28;20470;-50
2021/12/14 04:16:59;;;;;;;7.93;3.07;;;0.70;99.90;;;;;;5109884;27;20431;-49
2021/12/14 04:19:30;;;;;;;15.27;4.40;;;0.90;99.90;;;;;;5109958;27;20550;-49
2021/12/14 04:22:00;;;;;;;22.20;5.83;;;1.00;99.90;;;;;;5109128;27;20959;-48
2021/12/14 04:24:31;;;;;;;27.00;5.30;;;1.10;99.90;;;;;;5104711;27;20502;-50
2021/12/14 04:27:02;;;;;;;7.03;2.73;;;1.20;99.90;;;;;;5107806;28;20545;-51
2021/12/14 04:29:29;;;;;;;15.90;3.70;;;1.30;99.90;;;;;;5108576;27;20493;-50
2021/12/14 04:31:56;;;;;;;24.27;7.60;;;1.30;99.90;;;;;;5110177;27;20883;-49
2021/12/14 04:34:24;;;;;;;11.03;3.50;;;1.10;99.90;;;;;;5111119;27;20549;-51
2021/12/14 04:36:53;;;;;;;23.70;4.63;;;1.20;99.90;;;;;;5107172;27;20470;-51
2021/12/14 04:39:40;;;;;;;18.83;4.27;;;1.30;99.90;;;;;;5109638;27;20542;-50
2021/12/14 04:53:38;;;;;;;7.87;3.60;;;-0.10;99.90;;;;;;5102591;28;20440;-49
2021/12/14 04:56:07;;;;;;;18.50;3.57;;;0.10;99.90;;;;;;5104084;28;20474;-49
2021/12/14 04:58:38;;;;;;;13.10;3.80;;;0.40;99.90;;;;;;5105622;27;20529;-47
2021/12/14 05:01:08;;;;;;;19.53;5.10;;;0.60;99.90;;;;;;5109177;27;20508;-51
2021/12/14 05:03:39;;;;;;;27.00;5.97;;;0.70;99.90;;;;;;5109433;27;20562;-49
2021/12/14 05:06:15;;;;;;;23.17;7.80;;;0.90;99.90;;;;;;5108668;27;20996;-48
2021/12/14 05:11:29;;;;;;;11.00;7.17;;;1.00;99.90;;;;;;5105401;27;20428;-51
2021/12/14 05:14:06;;;;;;;16.17;6.70;;;1.10;99.90;;;;;;5111549;27;20707;-51
2021/12/14 05:16:33;;;;;;;13.07;4.93;;;1.10;99.90;;;;;;5107235;28;20522;-48
2021/12/14 05:19:06;;;;;;;14.37;4.50;;;1.20;99.90;;;;;;5109156;27;20526;-52
2021/12/14 05:21:37;;;;;;;18.63;3.80;;;1.20;99.90;;;;;;5108417;28;21035;-50
2021/12/14 05:24:06;;;;;;;11.23;4.03;;;1.20;99.90;;;;;;5111059;27;21028;-50
2021/12/14 05:26:34;;;;;;;12.03;3.40;;;1.10;99.90;;;;;;5107181;28;20483;-49
2021/12/14 05:29:04;;;;;;;10.40;2.87;;;1.10;99.90;;;;;;5103823;28;20987;-50
2021/12/14 05:31:31;;;;;;;27.03;4.47;;;1.10;99.90;;;;;;5108501;27;20970;-50
2021/12/14 05:33:58;;;;;;;18.63;4.23;;;1.20;99.90;;;;;;5111679;27;20506;-49
2021/12/14 05:36:26;;;;;;;20.73;4.17;;;1.20;99.90;;;;;;5107180;28;20484;-48
2021/12/14 05:38:59;;;;;;;18.30;4.13;;;1.20;99.90;;;;;;5106503;28;20458;-47
2021/12/14 05:44:17;;;;;;;9.17;3.20;;;1.10;99.90;;;;;;5103273;28;20988;-51
2021/12/14 05:46:50;;;;;;;16.30;4.13;;;0.20;99.90;;;;;;5103064;28;20538;-50
2021/12/14 05:49:19;;;;;;;14.20;3.23;;;-0.30;99.90;;;;;;5102701;28;20473;-50
2021/12/14 05:51:47;;;;;;;20.63;3.97;;;-0.30;99.90;;;;;;5108786;28;20691;-52
2021/12/14 05:54:20;;;;;;;19.00;5.27;;;-0.10;99.90;;;;;;5102869;28;20524;-49
2021/12/14 05:56:48;;;;;;;33.17;5.53;;;-0.20;99.90;;;;;;5108379;28;20448;-49
2021/12/14 05:59:21;;;;;;;33.83;6.40;;;-0.50;99.90;;;;;;5104288;28;20552;-51
2021/12/14 06:01:49;;;;;;;33.93;6.47;;;-0.60;99.90;;;;;;5104210;28;20535;-49
2021/12/14 06:04:16;;;;;;;10.73;5.10;;;-0.30;99.90;;;;;;5107249;28;20562;-50
2021/12/14 06:06:46;;;;;;;10.40;5.30;;;-0.20;99.90;;;;;;5100388;28;20519;-49
2021/12/14 06:09:15;;;;;;;20.27;5.40;;;0.00;99.90;;;;;;5100224;28;20554;-48
2021/12/14 06:11:45;;;;;;;13.80;5.97;;;0.20;99.90;;;;;;5101454;28;21056;-51
2021/12/14 06:14:14;;;;;;;7.73;4.80;;;0.30;99.90;;;;;;5098256;28;20472;-49
2021/12/14 06:16:43;;;;;;;14.07;5.40;;;0.40;99.90;;;;;;5099614;28;20526;-51
2021/12/14 06:19:18;;;;;;;9.00;4.70;;;0.50;99.90;;;;;;5098861;28;20923;-49
2021/12/14 06:21:47;;;;;;;26.47;5.43;;;0.60;99.90;;;;;;5104910;28;20512;-50
2021/12/14 06:24:14;;;;;;;10.77;5.70;;;0.60;99.90;;;;;;5105195;28;20568;-51
2021/12/14 06:26:45;;;;;;;36.33;6.13;;;0.70;99.90;;;;;;5100609;28;20546;-49
2021/12/14 06:29:14;;;;;;;17.20;7.07;;;0.80;99.90;;;;;;5105021;27;20561;-50
2021/12/14 06:31:43;;;;;;;29.83;7.50;;;0.80;99.90;;;;;;5106528;27;20527;-50
2021/12/14 06:34:24;;;;;;;28.93;7.30;;;0.80;99.90;;;;;;5107739;27;20525;-48
2021/12/14 06:37:41;;;;;;;61.53;9.03;;;0.80;99.90;;;;;;5105576;28;20498;-51
2021/12/14 06:40:17;;;;;;;31.20;8.20;;;0.80;99.90;;;;;;5103284;28;20518;-50
2021/12/14 06:42:48;;;;;;;22.47;8.67;;;0.90;99.90;;;;;;5111175;28;20531;-50
2021/12/14 06:45:19;;;;;;;51.47;10.90;;;0.90;99.90;;;;;;5111534;28;20542;-51
2021/12/14 06:47:50;;;;;;;140.37;13.23;;;0.20;99.90;;;;;;5114484;27;20526;-50
2021/12/14 06:50:23;;;;;;;57.37;10.77;;;0.20;99.90;;;;;;5113923;27;20507;-50
2021/12/14 06:53:03;;;;;;;41.90;9.67;;;0.20;99.90;;;;;;5108778;27;20520;-50
2021/12/14 06:55:32;;;;;;;57.10;10.77;;;0.30;99.90;;;;;;5110607;27;20470;-49
2021/12/14 06:58:11;;;;;;;72.57;10.93;;;0.30;99.90;;;;;;5103119;28;20465;-49
2021/12/14 07:00:44;;;;;;;76.60;13.87;;;0.40;99.90;;;;;;5106982;27;20553;-50
2021/12/14 07:03:12;;;;;;;27.90;8.70;;;0.50;99.90;;;;;;5106696;28;20567;-49
2021/12/14 07:05:41;;;;;;;61.03;10.33;;;0.50;99.90;;;;;;5111617;27;20524;-51
2021/12/14 07:08:11;;;;;;;74.30;11.13;;;0.60;99.90;;;;;;5106540;28;20541;-50
2021/12/14 07:10:41;;;;;;;39.50;9.80;;;0.50;99.90;;;;;;5113326;27;20897;-51
2021/12/14 07:13:16;;;;;;;35.03;9.40;;;0.50;99.90;;;;;;5110456;27;20515;-48
2021/12/14 07:15:44;;;;;;;29.67;7.40;;;0.60;99.90;;;;;;5109064;27;20468;-51
2021/12/14 07:18:13;;;;;;;23.50;5.60;;;0.70;99.90;;;;;;5103226;28;20546;-51
2021/12/14 07:20:42;;;;;;;41.67;7.87;;;0.70;99.90;;;;;;5108307;27;20470;-50
2021/12/14 07:23:28;;;;;;;21.03;5.23;;;0.70;99.90;;;;;;5106052;27;21087;-49
2021/12/14 07:25:58;;;;;;;20.73;6.03;;;0.70;99.90;;;;;;5105200;28;20446;-50
2021/12/14 07:28:30;;;;;;;7.97;4.13;;;0.70;99.90;;;;;;5107760;27;20533;-50
2021/12/14 07:30:59;;;;;;;13.43;5.30;;;0.70;99.90;;;;;;5108254;27;20565;-50
2021/12/14 07:33:31;;;;;;;9.70;5.90;;;0.70;99.90;;;;;;5109088;27;20520;-50
2021/12/14 07:35:59;;;;;;;7.00;3.77;;;0.70;99.90;;;;;;5109432;27;20468;-49
2021/12/14 07:38:38;;;;;;;5.20;4.00;;;0.60;99.90;;;;;;5111423;27;20528;-50
2021/12/14 07:41:25;;;;;;;4.87;4.37;;;0.60;99.90;;;;;;5109678;27;20548;-50
2021/12/14 07:43:58;;;;;;;14.07;6.07;;;0.60;99.90;;;;;;5103258;28;21079;-50
2021/12/14 07:46:30;;;;;;;8.30;4.53;;;0.70;99.90;;;;;;5107823;27;20540;-49
2021/12/14 07:49:00;;;;;;;23.10;6.90;;;0.60;99.90;;;;;;5109719;27;20900;-49
2021/12/14 07:51:30;;;;;;;9.10;5.27;;;0.50;99.90;;;;;;5106597;27;20542;-49
2021/12/14 07:54:03;;;;;;;8.90;5.57;;;0.40;99.90;;;;;;5109266;28;20886;-49
2021/12/14 07:56:35;;;;;;;9.43;5.33;;;0.50;99.90;;;;;;5103934;22;20532;-77
2021/12/14 07:59:09;;;;;;;10.90;4.97;;;0.40;99.90;;;;;;5091397;28;20999;-77
2021/12/14 08:01:36;;;;;;;9.63;4.33;;;0.40;99.90;;;;;;5079135;28;20933;-78
2021/12/14 08:04:10;;;;;;;8.33;4.90;;;0.40;99.90;;;;;;5072919;28;20518;-76
2021/12/14 08:06:56;;;;;;;13.57;4.30;;;0.40;99.90;;;;;;5071721;28;20538;-76
2021/12/14 08:09:47;;;;;;;7.53;4.23;;;0.40;99.90;;;;;;5089320;22;20887;-49
2021/12/14 08:12:33;;;;;;;5.53;4.50;;;0.40;99.90;;;;;;5090251;28;20486;-52
2021/12/14 08:15:09;;;;;;;9.70;4.77;;;0.30;99.90;;;;;;5086456;28;20491;-50
2021/12/14 08:17:38;;;;;;;22.20;6.73;;;0.30;99.90;;;;;;5067876;28;20533;-50
2021/12/14 08:20:09;;;;;;;9.40;6.70;;;0.00;99.90;;;;;;5071704;28;20441;-49
2021/12/14 08:22:39;;;;;;;15.93;9.30;;;0.10;99.90;;;;;;5070054;28;20882;-50
2021/12/14 08:25:09;;;;;;;44.83;12.10;;;0.20;99.90;;;;;;5065549;28;20570;-49
2021/12/14 08:27:36;;;;;;;44.33;11.80;;;-0.30;99.90;;;;;;5067325;28;20533;-49
2021/12/14 08:30:10;;;;;;;23.97;9.67;;;-0.60;99.90;;;;;;5068480;28;20485;-48
2021/12/14 08:32:39;;;;;;;17.70;8.80;;;-0.50;99.90;;;;;;5071346;28;20525;-52
2021/12/14 08:35:12;;;;;;;38.13;11.00;;;-0.30;99.90;;;;;;5068988;28;20488;-50
2021/12/14 08:37:43;;;;;;;22.47;10.33;;;-0.20;99.90;;;;;;5067564;28;20537;-50
2021/12/14 08:40:13;;;;;;;18.33;9.27;;;-0.10;99.90;;;;;;5067714;28;20934;-49
2021/12/14 08:42:48;;;;;;;61.27;13.50;;;0.00;99.90;;;;;;5067538;28;21049;-46
2021/12/14 08:45:27;;;;;;;61.03;13.87;;;-0.20;99.90;;;;;;5068283;28;20496;-50
2021/12/14 08:47:57;;;;;;;54.87;15.40;;;-0.10;99.90;;;;;;5068847;28;20539;-50
2021/12/14 08:50:25;;;;;;;33.97;10.20;;;0.00;99.90;;;;;;5067831;28;20861;-51
2021/12/14 08:52:53;;;;;;;41.63;11.57;;;0.10;99.90;;;;;;5068613;28;20967;-50
2021/12/14 08:55:22;;;;;;;70.47;13.87;;;0.20;99.90;;;;;;5068260;28;20490;-50
2021/12/14 08:57:49;;;;;;;23.00;10.37;;;0.10;99.90;;;;;;5074341;28;20543;-49
2021/12/14 09:00:19;;;;;;;14.80;9.13;;;0.00;99.90;;;;;;5063484;28;20532;-51
2021/12/14 09:02:48;;;;;;;22.60;7.23;;;0.10;99.90;;;;;;5066983;28;20493;-52
2021/12/14 09:05:19;;;;;;;30.20;9.90;;;0.20;99.90;;;;;;5067742;28;20494;-50
2021/12/14 09:07:48;;;;;;;19.03;8.67;;;0.10;99.90;;;;;;5069054;28;20733;-48
2021/12/14 09:10:18;;;;;;;30.03;8.77;;;0.10;99.90;;;;;;5066799;28;20485;-51
2021/12/14 09:12:49;;;;;;;15.63;8.90;;;0.20;99.90;;;;;;5067487;28;20533;-50
2021/12/14 09:15:23;;;;;;;18.23;8.10;;;0.20;99.90;;;;;;5067614;28;20544;-51
2021/12/14 09:17:50;;;;;;;16.47;9.90;;;0.30;99.90;;;;;;5067464;28;20442;-49
2021/12/14 09:20:21;;;;;;;12.90;10.87;;;0.30;99.90;;;;;;5067092;28;20486;-50
2021/12/14 09:22:53;;;;;;;16.43;11.07;;;0.40;99.90;;;;;;5068999;28;20466;-49
2021/12/14 09:25:25;;;;;;;9.47;7.27;;;0.40;99.90;;;;;;5066980;28;20938;-50
2021/12/14 09:27:52;;;;;;;16.27;7.73;;;0.40;99.90;;;;;;5064864;28;20998;-50
2021/12/14 09:30:22;;;;;;;17.13;9.77;;;0.40;99.90;;;;;;5064571;28;21015;-50
2021/12/14 09:32:50;;;;;;;22.30;9.23;;;0.40;99.90;;;;;;5067151;28;20443;-49
2021/12/14 09:35:22;;;;;;;12.20;8.40;;;0.40;99.90;;;;;;5066992;28;20490;-49
2021/12/14 09:37:53;;;;;;;12.30;8.00;;;0.50;99.90;;;;;;5067510;28;20986;-50
2021/12/14 09:40:24;;;;;;;16.77;9.37;;;0.50;99.90;;;;;;5068850;28;20474;-49
2021/12/14 09:42:52;;;;;;;50.83;13.00;;;0.60;99.90;;;;;;5068818;28;20481;-50
2021/12/14 09:45:24;;;;;;;33.27;11.67;;;0.60;99.90;;;;;;5066810;28;20474;-50
2021/12/14 09:47:51;;;;;;;76.80;15.67;;;0.50;99.90;;;;;;5067128;28;20480;-52
2021/12/14 09:50:22;;;;;;;23.87;11.57;;;-0.20;99.90;;;;;;5066686;28;20525;-52
2021/12/14 09:52:51;;;;;;;16.80;8.23;;;-0.50;99.90;;;;;;5068189;28;20481;-50
2021/12/14 09:55:21;;;;;;;14.43;8.03;;;-0.20;99.90;;;;;;5064491;28;20486;-50
2021/12/14 09:57:53;;;;;;;17.07;8.50;;;0.00;99.90;;;;;;5070423;28;20495;-50
2021/12/14 10:00:25;;;;;;;27.97;10.80;;;0.10;99.90;;;;;;5070575;28;20537;-50
2021/12/14 10:02:54;;;;;;;14.67;8.07;;;0.30;99.90;;;;;;5063220;28;20546;-51
2021/12/14 10:05:25;;;;;;;14.27;11.20;;;0.40;99.90;;;;;;5070013;28;21008;-50
2021/12/14 10:07:58;;;;;;;25.23;12.60;;;0.50;99.90;;;;;;5064508;28;20473;-49
2021/12/14 10:10:25;;;;;;;27.33;12.70;;;0.60;99.90;;;;;;5071778;28;20930;-50
2021/12/14 10:12:55;;;;;;;25.07;13.30;;;0.70;99.90;;;;;;5075643;28;20469;-51
2021/12/14 10:15:30;;;;;;;20.70;11.30;;;0.70;99.90;;;;;;5065651;28;20544;-51
2021/12/14 10:18:00;;;;;;;15.33;10.50;;;0.80;99.90;;;;;;5070889;28;20529;-49
2021/12/14 10:20:30;;;;;;;34.93;16.40;;;0.80;99.90;;;;;;5070004;28;20537;-51
2021/12/14 10:22:59;;;;;;;45.10;16.47;;;0.80;99.90;;;;;;5072111;28;20470;-51
2021/12/14 10:25:28;;;;;;;25.23;16.57;;;0.80;99.90;;;;;;5071596;28;20562;-52
2021/12/14 10:27:55;;;;;;;39.77;20.10;;;0.80;99.90;;;;;;5075087;28;20528;-51
2021/12/14 10:30:28;;;;;;;33.57;17.67;;;0.70;99.90;;;;;;5068223;28;20997;-49
2021/12/14 10:32:55;;;;;;;27.87;15.20;;;0.70;99.90;;;;;;5072865;28;20849;-47
2021/12/14 10:35:29;;;;;;;23.93;14.50;;;0.50;99.90;;;;;;5064845;28;20495;-49
2021/12/14 10:37:59;;;;;;;35.60;19.40;;;0.50;99.90;;;;;;5060577;28;20448;-49
2021/12/14 10:43:18;;;;;;;45.27;19.43;;;0.50;99.90;;;;;;5066385;28;20440;-49
2021/12/14 10:45:50;;;;;;;46.40;18.50;;;0.30;99.90;;;;;;5078273;28;20565;-48
2021/12/14 10:48:18;;;;;;;36.37;14.87;;;0.00;99.90;;;;;;5069713;28;20537;-52
2021/12/14 10:50:49;;;;;;;21.53;10.90;;;0.10;99.90;;;;;;5070489;28;20532;-51
2021/12/14 10:53:19;;;;;;;35.67;11.60;;;0.20;99.90;;;;;;5070223;28;20527;-49
2021/12/14 10:55:51;;;;;;;23.30;14.80;;;0.30;99.90;;;;;;5070708;28;20462;-50
2021/12/14 10:58:21;;;;;;;20.50;13.07;;;0.40;99.90;;;;;;5070359;28;20447;-50
2021/12/14 11:00:51;;;;;;;46.13;16.20;;;0.40;99.90;;;;;;5070912;28;20877;-51
2021/12/14 11:03:21;;;;;;;27.83;14.53;;;0.40;99.90;;;;;;5070216;28;20491;-50
2021/12/14 11:05:52;;;;;;;26.10;14.23;;;0.40;99.90;;;;;;5069095;28;21049;-51
2021/12/14 11:08:45;;;;;;;31.43;16.77;;;0.50;99.90;;;;;;5071045;28;20543;-49
2021/12/14 11:11:18;;;;;;;22.23;15.37;;;0.50;99.90;;;;;;5069859;28;20452;-49
2021/12/14 11:13:48;;;;;;;19.33;15.40;;;0.50;99.90;;;;;;5067300;28;20476;-49
2021/12/14 11:16:31;;;;;;;30.87;12.90;;;0.60;99.90;;;;;;5070858;28;20497;-50
2021/12/14 11:19:01;;;;;;;7.30;6.60;;;0.40;99.90;;;;;;5069423;28;20629;-48
2021/12/14 11:21:28;;;;;;;9.60;8.60;;;0.30;99.90;;;;;;5071667;28;20451;-48
2021/12/14 11:23:55;;;;;;;22.03;17.07;;;0.50;99.90;;;;;;5070679;28;20530;-49
2021/12/14 11:26:29;;;;;;;21.90;15.40;;;0.70;99.90;;;;;;5066984;28;20987;-50
2021/12/14 11:28:59;;;;;;;14.33;11.30;;;0.80;99.90;;;;;;5069291;28;20453;-49
2021/12/14 11:31:31;;;;;;;13.47;12.00;;;1.00;99.90;;;;;;5073411;28;20482;-51
2021/12/14 11:34:02;;;;;;;21.20;18.30;;;1.10;99.90;;;;;;5068543;28;20464;-50
2021/12/14 11:36:32;;;;;;;20.70;17.60;;;1.20;99.90;;;;;;5069240;28;20513;-51
2021/12/14 11:39:06;;;;;;;18.03;16.10;;;1.20;99.90;;;;;;5070320;28;20450;-47
2021/12/14 11:41:47;;;;;;;17.70;15.53;;;1.20;99.90;;;;;;5068761;28;20479;-51
2021/12/14 11:44:20;;;;;;;19.10;17.07;;;0.90;99.90;;;;;;5066029;28;20483;-52
2021/12/14 11:46:58;;;;;;;10.07;9.13;;;0.60;99.90;;;;;;5064144;28;20553;-51
2021/12/14 11:49:41;;;;;;;5.73;5.20;;;0.80;99.90;;;;;;5069149;28;20909;-50
2021/12/14 11:52:10;;;;;;;37.07;33.37;;;1.30;99.90;;;;;;5068059;28;20530;-49
2021/12/14 11:54:42;;;;;;;23.83;19.90;;;1.40;99.90;;;;;;5068705;28;20528;-50
2021/12/14 11:57:11;;;;;;;23.23;20.40;;;1.50;99.90;;;;;;5065652;28;20480;-51
2021/12/14 11:59:39;;;;;;;23.53;20.90;;;1.60;99.90;;;;;;5063622;28;20930;-50
2021/12/14 12:02:07;;;;;;;26.23;19.90;;;1.60;99.90;;;;;;5069042;28;20879;-51
2021/12/14 12:04:36;;;;;;;21.30;18.40;;;1.70;99.90;;;;;;5068182;28;20515;-51
2021/12/14 12:09:50;;;;;;;17.43;15.63;;;1.80;99.90;;;;;;5028931;28;20432;-49
2021/12/14 12:12:25;;;;;;;18.20;16.50;;;1.60;99.90;;;;;;5064381;28;20479;-50
2021/12/14 12:14:55;;;;;;;20.17;17.40;;;1.30;99.90;;;;;;5063520;28;20492;-50
2021/12/14 12:17:29;;;;;;;15.27;13.50;;;1.40;99.90;;;;;;5063079;28;20473;-50
2021/12/14 12:20:03;;;;;;;13.40;12.07;;;1.50;99.90;;;;;;5064806;28;20457;-49
2021/12/14 12:22:36;;;;;;;12.67;11.40;;;1.80;99.90;;;;;;5064247;28;20493;-51
2021/12/14 12:25:06;;;;;;;10.33;9.40;;;1.90;99.90;;;;;;5064328;28;20568;-50
2021/12/14 12:27:39;;;;;;;20.37;16.20;;;2.00;99.90;;;;;;5062251;28;20555;-49
2021/12/14 12:30:21;;;;;;;34.23;28.07;;;2.00;99.90;;;;;;5066679;28;20445;-49
2021/12/14 12:32:48;;;;;;;20.63;16.83;;;2.00;99.90;;;;;;5064852;28;20468;-49
2021/12/14 12:35:27;;;;;;;13.43;12.03;;;2.10;99.90;;;;;;5063537;28;20893;-49
2021/12/14 12:37:56;;;;;;;13.90;12.43;;;2.20;99.90;;;;;;5065014;28;20451;-50
2021/12/14 12:40:37;;;;;;;14.93;12.93;;;2.10;99.90;;;;;;5065792;28;21008;-49
2021/12/14 12:43:26;;;;;;;13.93;12.37;;;1.80;99.90;;;;;;5065984;28;20535;-49
2021/12/14 12:46:13;;;;;;;14.53;12.93;;;1.80;99.90;;;;;;5065681;28;20476;-49
2021/12/14 12:48:54;;;;;;;18.33;14.30;;;1.90;99.90;;;;;;5063694;28;20447;-49
2021/12/14 12:52:00;;;;;;;14.23;12.73;;;2.00;99.90;;;;;;5062908;28;20526;-49
2021/12/14 12:54:38;;;;;;;17.60;15.00;;;2.00;99.90;;;;;;5063369;28;20476;-49
2021/12/14 12:57:30;;;;;;;16.27;14.57;;;2.10;99.90;;;;;;5064449;28;20525;-49
2021/12/14 13:00:09;;;;;;;16.30;13.70;;;2.10;99.90;;;;;;5061336;28;20440;-52
2021/12/14 13:02:41;;;;;;;16.57;14.20;;;2.20;99.90;;;;;;5062434;28;20440;-49
2021/12/14 13:05:15;;;;;;;15.60;14.00;;;2.20;99.90;;;;;;5062736;28;20563;-50
2021/12/14 13:07:45;;;;;;;14.60;13.00;;;2.10;99.90;;;;;;5067303;28;20436;-51
2021/12/14 13:10:28;;;;;;;12.10;10.77;;;2.20;99.90;;;;;;5064252;28;20990;-50
2021/12/14 13:13:02;;;;;;;12.43;10.47;;;2.20;99.90;;;;;;5064483;28;20531;-50
2021/12/14 13:15:40;;;;;;;12.87;10.73;;;2.20;99.90;;;;;;5065028;28;20484;-50
2021/12/14 13:18:36;;;;;;;12.50;11.10;;;2.30;99.90;;;;;;5065465;28;20474;-50
2021/12/14 13:21:09;;;;;;;13.37;12.17;;;2.30;99.90;;;;;;5065818;28;20482;-51
2021/12/14 13:24:11;;;;;;;21.93;19.63;;;2.40;99.90;;;;;;5064193;28;20634;-50
2021/12/14 13:26:45;;;;;;;36.77;28.20;;;2.40;99.90;;;;;;5024425;28;20564;-51
2021/12/14 13:29:25;;;;;;;36.63;26.73;;;2.50;99.90;;;;;;5020318;28;20881;-50
2021/12/14 13:31:56;;;;;;;24.30;20.87;;;2.50;99.90;;;;;;5057002;28;21025;-49
2021/12/14 13:34:27;;;;;;;16.80;15.10;;;2.50;99.90;;;;;;5064841;28;20897;-53
2021/12/14 13:36:56;;;;;;;17.47;15.23;;;2.80;99.90;;;;;;5066191;28;20539;-50